createdAt,value
2022-10-18T00:02:14.665Z,16.24
2022-10-18T00:04:44.406Z,16.21
2022-10-18T00:07:14.307Z,16.30
2022-10-18T00:09:44.054Z,16.24
2022-10-18T00:12:13.515Z,16.19
2022-10-18T00:14:43.566Z,16.11
2022-10-18T00:17:13.635Z,16.00
2022-10-18T00:19:44.134Z,15.98
2022-10-18T00:22:13.651Z,16.08
2022-10-18T00:24:43.792Z,16.01
2022-10-18T00:27:13.694Z,16.17
2022-10-18T00:29:43.820Z,16.16
2022-10-18T00:32:13.282Z,15.88
2022-10-18T00:34:43.028Z,15.87
2022-10-18T00:37:12.771Z,15.83
2022-10-18T00:39:43.023Z,15.82
2022-10-18T00:42:20.666Z,16.02
2022-10-18T00:44:53.751Z,16.06
2022-10-18T00:47:23.525Z,16.01
2022-10-18T00:49:56.679Z,16.01
2022-10-18T00:52:32.605Z,15.98
2022-10-18T00:57:52.630Z,16.02
2022-10-18T01:00:22.662Z,16.12
2022-10-18T01:02:52.813Z,16.21
2022-10-18T01:05:23.999Z,16.23
2022-10-18T01:08:11.004Z,15.98
2022-10-18T01:10:51.816Z,16.00
2022-10-18T01:13:42.567Z,15.98
2022-10-18T01:16:40.134Z,15.94
2022-10-18T01:19:21.663Z,16.09
2022-10-18T01:22:00.434Z,16.09
2022-10-18T01:24:41.193Z,16.12
2022-10-18T01:27:40.516Z,15.95
2022-10-18T01:30:35.105Z,16.19
2022-10-18T01:33:15.778Z,16.23
2022-10-18T01:36:03.347Z,16.09
2022-10-18T01:38:35.537Z,16.26
2022-10-18T01:41:11.757Z,16.29
2022-10-18T01:43:41.258Z,16.28
2022-10-18T01:46:13.471Z,16.33
2022-10-18T01:48:43.633Z,16.32
2022-10-18T01:51:13.382Z,16.21
2022-10-18T01:53:43.122Z,16.27
2022-10-18T01:56:36.485Z,16.25
2022-10-18T01:59:24.325Z,16.18
2022-10-18T02:02:25.267Z,16.46
2022-10-18T02:05:09.943Z,16.33
2022-10-18T02:08:05.659Z,16.23
2022-10-18T02:10:34.609Z,16.26
2022-10-18T02:13:05.229Z,16.42
2022-10-18T02:15:38.320Z,16.49
2022-10-18T02:18:15.367Z,16.46
2022-10-18T02:20:46.557Z,16.34
2022-10-18T02:23:19.372Z,16.45
2022-10-18T02:25:49.221Z,16.45
2022-10-18T02:28:19.118Z,16.48
2022-10-18T02:30:52.224Z,16.53
2022-10-18T02:33:27.658Z,16.51
2022-10-18T02:36:00.448Z,16.55
2022-10-18T02:38:32.328Z,16.43
2022-10-18T02:41:02.527Z,16.64
2022-10-18T02:43:32.586Z,16.63
2022-10-18T02:46:03.148Z,16.56
2022-10-18T02:48:32.975Z,16.62
2022-10-18T02:51:02.726Z,16.59
2022-10-18T02:53:32.475Z,16.59
2022-10-18T02:56:03.215Z,16.67
2022-10-18T02:58:32.975Z,16.69
2022-10-18T03:01:02.738Z,16.69
2022-10-18T03:03:32.228Z,16.64
2022-10-18T03:06:01.991Z,16.71
2022-10-18T03:08:31.754Z,16.80
2022-10-18T03:11:01.516Z,16.72
2022-10-18T03:13:31.317Z,16.63
2022-10-18T03:16:01.915Z,16.68
2022-10-18T03:18:31.665Z,16.76
2022-10-18T03:21:06.686Z,16.66
2022-10-18T03:23:36.439Z,16.66
2022-10-18T03:26:07.721Z,16.76
2022-10-18T03:28:37.575Z,16.57
2022-10-18T03:31:07.356Z,16.39
2022-10-18T03:33:37.134Z,16.54
2022-10-18T03:36:08.214Z,16.45
2022-10-18T03:38:37.964Z,16.46
2022-10-18T03:41:07.847Z,16.39
2022-10-18T03:43:37.658Z,16.45
2022-10-18T03:46:09.851Z,16.51
2022-10-18T03:48:39.672Z,16.44
2022-10-18T03:51:09.722Z,16.40
2022-10-18T03:53:39.741Z,16.48
2022-10-18T03:56:11.401Z,16.34
2022-10-18T03:58:41.143Z,16.46
2022-10-18T04:01:10.965Z,16.44
2022-10-18T04:03:40.713Z,16.39
2022-10-18T04:06:11.752Z,16.44
2022-10-18T04:08:41.508Z,16.31
2022-10-18T04:11:12.080Z,16.31
2022-10-18T04:13:41.826Z,16.30
2022-10-18T04:16:11.366Z,16.23
2022-10-18T04:18:41.103Z,16.34
2022-10-18T04:21:10.594Z,16.39
2022-10-18T04:23:40.336Z,16.38
2022-10-18T04:26:11.278Z,16.30
2022-10-18T04:28:41.167Z,16.35
2022-10-18T04:31:12.406Z,16.56
2022-10-18T04:33:42.196Z,16.28
2022-10-18T04:36:11.644Z,16.31
2022-10-18T04:38:41.109Z,16.11
2022-10-18T04:41:10.553Z,16.30
2022-10-18T04:43:40.671Z,16.12
2022-10-18T04:46:11.537Z,16.09
2022-10-18T04:48:41.368Z,16.10
2022-10-18T04:51:11.096Z,16.20
2022-10-18T04:53:40.852Z,16.21
2022-10-18T04:56:11.512Z,16.15
2022-10-18T04:58:41.320Z,16.22
2022-10-18T05:01:11.124Z,16.20
2022-10-18T05:03:40.990Z,16.24
2022-10-18T05:06:11.519Z,16.17
2022-10-18T05:08:41.822Z,16.13
2022-10-18T05:11:11.568Z,16.24
2022-10-18T05:13:41.496Z,16.13
2022-10-18T05:16:11.476Z,16.13
2022-10-18T05:18:43.020Z,16.03
2022-10-18T05:21:12.784Z,16.04
2022-10-18T05:23:42.302Z,15.98
2022-10-18T05:26:11.748Z,16.05
2022-10-18T05:28:41.692Z,15.89
2022-10-18T05:31:12.222Z,15.83
2022-10-18T05:33:42.014Z,15.94
2022-10-18T05:36:11.854Z,15.94
2022-10-18T05:38:43.361Z,15.98
2022-10-18T05:41:13.862Z,15.95
2022-10-18T05:43:43.611Z,15.86
2022-10-18T05:46:15.353Z,15.92
2022-10-18T05:48:45.530Z,15.78
2022-10-18T05:51:15.297Z,15.94
2022-10-18T05:53:45.188Z,16.07
2022-10-18T05:56:15.272Z,15.82
2022-10-18T05:58:45.006Z,15.90
2022-10-18T06:01:14.793Z,15.82
2022-10-18T06:03:44.627Z,15.95
2022-10-18T06:06:15.508Z,15.88
2022-10-18T06:08:45.539Z,15.74
2022-10-18T06:11:18.173Z,15.70
2022-10-18T06:13:52.305Z,15.60
2022-10-18T06:16:25.442Z,15.69
2022-10-18T06:18:56.624Z,15.65
2022-10-18T06:21:26.541Z,15.68
2022-10-18T06:23:59.399Z,15.78
2022-10-18T06:26:29.907Z,15.76
2022-10-18T06:28:59.778Z,15.72
2022-10-18T06:31:29.579Z,15.73
2022-10-18T06:33:59.455Z,15.85
2022-10-18T06:36:29.473Z,15.72
2022-10-18T06:38:59.954Z,15.73
2022-10-18T06:41:29.699Z,15.74
2022-10-18T06:44:02.780Z,15.74
2022-10-18T06:46:33.225Z,15.67
2022-10-18T06:49:02.984Z,15.68
2022-10-18T06:51:33.138Z,15.54
2022-10-18T06:54:17.583Z,15.60
2022-10-18T06:56:35.089Z,15.55
2022-10-18T06:59:05.687Z,15.54
2022-10-18T07:01:35.510Z,15.72
2022-10-18T07:04:06.523Z,15.78
2022-10-18T07:06:36.370Z,15.69
2022-10-18T07:09:06.123Z,15.91
2022-10-18T07:11:36.467Z,15.58
2022-10-18T07:14:08.810Z,15.74
2022-10-18T07:16:39.312Z,15.69
2022-10-18T07:19:09.054Z,15.63
2022-10-18T07:21:39.123Z,15.54
2022-10-18T07:24:11.090Z,15.54
2022-10-18T07:26:42.312Z,15.52
2022-10-18T07:29:13.404Z,15.52
2022-10-18T07:31:43.190Z,15.67
2022-10-18T07:34:14.794Z,15.64
2022-10-18T07:36:44.905Z,15.56
2022-10-18T07:39:14.753Z,15.52
2022-10-18T07:41:44.852Z,15.50
2022-10-18T07:44:14.600Z,15.66
2022-10-18T07:46:44.653Z,15.65
2022-10-18T07:49:14.408Z,15.89
2022-10-18T07:51:44.242Z,16.00
2022-10-18T07:54:13.985Z,16.00
2022-10-18T07:56:44.218Z,16.12
2022-10-18T07:59:14.039Z,16.05
2022-10-18T08:01:43.830Z,16.07
2022-10-18T08:04:16.365Z,15.88
2022-10-18T08:06:45.070Z,15.79
2022-10-18T08:09:14.973Z,15.84
2022-10-18T08:11:45.036Z,15.99
2022-10-18T08:14:15.323Z,16.09
2022-10-18T08:16:45.090Z,16.30
2022-10-18T08:19:14.816Z,16.39
2022-10-18T08:21:44.578Z,16.23
2022-10-18T08:24:14.204Z,16.10
2022-10-18T08:26:43.947Z,15.97
2022-10-18T08:29:31.663Z,15.97
2022-10-18T08:31:45.187Z,16.03
2022-10-18T08:34:19.521Z,16.40
2022-10-18T08:36:46.158Z,16.44
2022-10-18T08:39:15.974Z,16.31
2022-10-18T08:41:49.038Z,16.43
2022-10-18T08:44:30.546Z,16.42
2022-10-18T08:47:03.874Z,16.42
2022-10-18T08:49:48.457Z,16.49
2022-10-18T08:55:21.443Z,16.49
2022-10-18T08:57:52.222Z,16.81
2022-10-18T09:00:25.219Z,17.03
2022-10-18T09:03:16.082Z,17.27
2022-10-18T09:05:57.764Z,17.14
2022-10-18T09:08:30.548Z,17.19
2022-10-18T09:11:28.816Z,17.10
2022-10-18T09:14:24.110Z,17.10
2022-10-18T09:17:02.452Z,16.77
2022-10-18T09:20:09.224Z,17.18
2022-10-18T09:22:44.816Z,17.59
2022-10-18T09:25:17.278Z,17.74
2022-10-18T09:27:55.740Z,17.92
2022-10-18T09:30:34.495Z,17.83
2022-10-18T09:33:32.564Z,18.28
2022-10-18T09:36:10.945Z,18.43
2022-10-18T09:38:49.614Z,18.61
2022-10-18T09:41:51.194Z,18.61
2022-10-18T09:44:26.939Z,18.60
2022-10-18T09:47:07.872Z,18.48
2022-10-18T09:49:43.356Z,18.82
2022-10-18T09:52:34.856Z,18.73
2022-10-18T09:55:24.993Z,18.91
2022-10-18T09:57:57.765Z,18.77
2022-10-18T10:00:30.858Z,19.24
2022-10-18T10:03:02.610Z,19.71
2022-10-18T10:05:32.381Z,19.61
2022-10-18T10:08:02.796Z,19.46
2022-10-18T10:13:27.773Z,19.66
2022-10-18T10:16:02.873Z,19.70
2022-10-18T10:18:37.786Z,19.70
2022-10-18T10:21:11.185Z,19.74
2022-10-18T10:23:55.821Z,19.83
2022-10-18T10:26:37.935Z,19.90
2022-10-18T10:29:43.532Z,19.67
2022-10-18T10:32:05.273Z,19.65
2022-10-18T10:34:35.008Z,19.71
2022-10-18T10:37:05.408Z,19.91
2022-10-18T10:39:35.146Z,19.79
2022-10-18T10:42:09.255Z,20.01
2022-10-18T10:44:39.944Z,19.97
2022-10-18T10:47:09.745Z,19.85
2022-10-18T10:49:45.159Z,19.72
2022-10-18T10:52:28.977Z,19.71
2022-10-18T10:54:55.705Z,19.71
2022-10-18T10:57:27.234Z,19.98
2022-10-18T11:00:00.860Z,19.81
2022-10-18T11:02:33.459Z,19.98
2022-10-18T11:05:27.112Z,20.23
2022-10-18T11:07:59.861Z,20.25
2022-10-18T11:10:32.352Z,20.55
2022-10-18T11:13:39.300Z,20.44
2022-10-18T11:16:17.193Z,20.19
2022-10-18T11:18:49.843Z,20.31
2022-10-18T11:21:25.486Z,20.28
2022-10-18T11:23:57.211Z,20.37
2022-10-18T11:26:42.139Z,20.38
2022-10-18T11:29:27.335Z,20.64
2022-10-18T11:32:05.765Z,20.67
2022-10-18T11:34:41.084Z,20.77
2022-10-18T11:37:42.643Z,20.77
2022-10-18T11:40:25.418Z,20.79
2022-10-18T11:43:15.442Z,20.98
2022-10-18T11:46:05.875Z,20.74
2022-10-18T11:48:41.332Z,20.97
2022-10-18T11:51:44.539Z,21.10
2022-10-18T11:54:37.603Z,21.16
2022-10-18T11:57:28.032Z,20.90
2022-10-18T12:00:18.346Z,20.91
2022-10-18T12:03:15.132Z,20.69
2022-10-18T12:05:47.645Z,21.06
2022-10-18T12:08:20.155Z,21.33
2022-10-18T12:11:05.038Z,21.30
2022-10-18T12:13:43.700Z,21.31
2022-10-18T12:16:14.084Z,20.94
2022-10-18T12:18:49.689Z,20.71
2022-10-18T12:21:25.536Z,20.58
2022-10-18T12:23:56.682Z,20.91
2022-10-18T12:26:28.343Z,20.86
2022-10-18T12:29:16.027Z,21.06
2022-10-18T12:31:48.939Z,20.72
2022-10-18T12:34:27.743Z,20.87
2022-10-18T12:37:16.508Z,21.28
2022-10-18T12:40:08.997Z,21.27
2022-10-18T12:42:29.960Z,21.52
2022-10-18T12:45:05.656Z,21.47
2022-10-18T12:47:36.539Z,21.57
2022-10-18T12:50:27.775Z,21.41
2022-10-18T12:53:06.537Z,21.59
2022-10-18T12:55:39.448Z,21.47
2022-10-18T12:58:25.655Z,21.37
2022-10-18T13:00:57.717Z,21.15
2022-10-18T13:03:31.029Z,21.15
2022-10-18T13:06:05.681Z,21.46
2022-10-18T13:08:39.315Z,21.73
2022-10-18T13:11:14.986Z,21.31
2022-10-18T13:14:09.860Z,21.35
2022-10-18T13:16:45.197Z,21.33
2022-10-18T13:19:26.849Z,21.25
2022-10-18T13:22:14.365Z,21.04
2022-10-18T13:24:47.140Z,20.96
2022-10-18T13:27:39.162Z,21.19
2022-10-18T13:30:29.553Z,21.05
2022-10-18T13:33:06.351Z,21.17
2022-10-18T13:35:55.101Z,21.17
2022-10-18T13:38:30.142Z,21.41
2022-10-18T13:41:14.439Z,21.47
2022-10-18T13:43:55.651Z,21.47
2022-10-18T13:46:37.291Z,21.81
2022-10-18T13:49:24.813Z,22.02
2022-10-18T13:52:09.034Z,22.01
2022-10-18T13:54:41.815Z,21.83
2022-10-18T13:57:30.776Z,21.83
2022-10-18T14:00:06.345Z,21.75
2022-10-18T14:03:16.279Z,21.52
2022-10-18T14:05:59.715Z,21.24
2022-10-18T14:08:46.931Z,21.21
2022-10-18T14:11:34.813Z,21.41
2022-10-18T14:14:09.412Z,21.57
2022-10-18T14:16:42.176Z,21.50
2022-10-18T14:19:32.994Z,21.47
2022-10-18T14:22:11.732Z,22.18
2022-10-18T14:24:44.515Z,22.75
2022-10-18T14:27:27.963Z,22.42
2022-10-18T14:30:18.736Z,21.91
2022-10-18T14:32:51.430Z,21.36
2022-10-18T14:35:33.612Z,21.57
2022-10-18T14:38:04.385Z,21.17
2022-10-18T14:40:41.620Z,21.10
2022-10-18T14:43:14.179Z,21.15
2022-10-18T14:45:44.117Z,20.96
2022-10-18T14:48:24.361Z,20.93
2022-10-18T14:51:01.651Z,21.13
2022-10-18T14:53:37.193Z,20.85
2022-10-18T14:56:08.404Z,20.66
2022-10-18T14:58:38.579Z,20.67
2022-10-18T15:01:08.403Z,20.71
2022-10-18T15:03:38.224Z,20.70
2022-10-18T15:06:09.640Z,20.64
2022-10-18T15:08:43.742Z,20.39
2022-10-18T15:11:16.080Z,20.20
2022-10-18T15:13:51.784Z,20.41
2022-10-18T15:16:23.903Z,20.52
2022-10-18T15:19:16.158Z,20.56
2022-10-18T15:22:07.991Z,20.29
2022-10-18T15:24:32.198Z,20.05
2022-10-18T15:27:04.690Z,20.05
2022-10-18T15:29:36.998Z,20.30
2022-10-18T15:32:29.121Z,20.29
2022-10-18T15:35:12.864Z,20.40
2022-10-18T15:37:47.901Z,20.11
2022-10-18T15:40:26.029Z,19.76
2022-10-18T15:42:58.263Z,19.75
2022-10-18T15:45:33.602Z,19.56
2022-10-18T15:48:18.350Z,19.29
2022-10-18T15:50:53.681Z,19.22
2022-10-18T15:53:35.175Z,19.11
2022-10-18T15:56:12.006Z,18.92
2022-10-18T15:58:47.771Z,18.89
2022-10-18T16:01:21.298Z,18.75
2022-10-18T16:03:52.472Z,18.87
2022-10-18T16:06:22.064Z,18.80
2022-10-18T16:08:53.550Z,18.84
2022-10-18T16:11:26.091Z,18.60
2022-10-18T16:13:58.014Z,18.37
2022-10-18T16:16:29.152Z,18.12
2022-10-18T16:18:59.221Z,18.19
2022-10-18T16:21:34.606Z,18.07
2022-10-18T16:24:06.912Z,17.68
2022-10-18T16:26:37.196Z,17.68
2022-10-18T16:29:07.610Z,17.65
2022-10-18T16:31:37.036Z,17.65
2022-10-18T16:34:09.641Z,17.40
2022-10-18T16:36:39.660Z,17.31
2022-10-18T16:39:15.412Z,17.25
2022-10-18T16:41:46.238Z,17.17
2022-10-18T16:44:17.078Z,17.13
2022-10-18T16:46:50.977Z,16.97
2022-10-18T16:49:23.837Z,16.91
2022-10-18T16:51:55.805Z,16.86
2022-10-18T16:54:25.598Z,16.65
2022-10-18T16:56:55.642Z,16.64
2022-10-18T16:59:28.837Z,16.41
2022-10-18T17:01:58.705Z,16.13
2022-10-18T17:04:29.077Z,16.15
2022-10-18T17:06:59.161Z,16.04
2022-10-18T17:09:28.935Z,16.06
2022-10-18T17:11:59.019Z,15.91
2022-10-18T17:14:28.767Z,15.89
2022-10-18T17:16:58.560Z,15.67
2022-10-18T17:19:28.796Z,15.67
2022-10-18T17:22:02.443Z,15.72
2022-10-18T17:24:29.951Z,15.47
2022-10-18T17:26:59.689Z,15.47
2022-10-18T17:29:29.143Z,15.47
2022-10-18T17:31:58.959Z,15.23
2022-10-18T17:34:28.751Z,14.92
2022-10-18T17:36:58.295Z,14.89
2022-10-18T17:39:28.022Z,14.84
2022-10-18T17:41:57.902Z,14.86
2022-10-18T17:44:27.794Z,14.86
2022-10-18T17:46:57.550Z,14.80
2022-10-18T17:49:27.922Z,14.77
2022-10-18T17:51:57.832Z,14.82
2022-10-18T17:54:27.337Z,14.86
2022-10-18T17:56:57.072Z,14.69
2022-10-18T17:59:26.887Z,14.75
2022-10-18T18:01:56.630Z,14.75
2022-10-18T18:04:26.443Z,14.62
2022-10-18T18:06:57.148Z,14.48
2022-10-18T18:09:27.547Z,14.58
2022-10-18T18:11:58.077Z,14.54
2022-10-18T18:14:27.964Z,14.43
2022-10-18T18:16:57.900Z,14.37
2022-10-18T18:19:27.834Z,14.19
2022-10-18T18:21:58.653Z,14.29
2022-10-18T18:24:28.328Z,14.27
2022-10-18T18:26:58.420Z,14.11
2022-10-18T18:29:29.402Z,14.13
2022-10-18T18:31:59.765Z,14.02
2022-10-18T18:34:29.571Z,14.00
2022-10-18T18:36:59.381Z,13.84
2022-10-18T18:39:29.602Z,13.84
2022-10-18T18:41:59.486Z,13.85
2022-10-18T18:44:29.492Z,13.70
2022-10-18T18:46:59.464Z,13.75
2022-10-18T18:49:31.375Z,13.62
2022-10-18T18:52:01.470Z,13.62
2022-10-18T18:54:31.603Z,13.61
2022-10-18T18:57:03.009Z,13.62
2022-10-18T18:59:32.745Z,13.67
2022-10-18T19:02:02.487Z,13.46
2022-10-18T19:04:32.311Z,13.24
2022-10-18T19:07:02.043Z,13.21
2022-10-18T19:09:32.655Z,13.15
2022-10-18T19:12:02.472Z,13.07
2022-10-18T19:14:32.240Z,13.12
2022-10-18T19:17:04.099Z,13.09
2022-10-18T19:19:34.172Z,13.12
2022-10-18T19:22:04.993Z,13.10
2022-10-18T19:24:34.814Z,13.12
2022-10-18T19:27:09.223Z,13.01
2022-10-18T19:29:41.190Z,12.98
2022-10-18T19:32:16.021Z,12.99
2022-10-18T19:34:45.772Z,13.17
2022-10-18T19:37:16.196Z,12.99
2022-10-18T19:39:46.313Z,12.97
2022-10-18T19:42:18.699Z,12.92
2022-10-18T19:44:47.705Z,12.91
2022-10-18T19:47:17.750Z,12.90
2022-10-18T19:49:48.056Z,12.83
2022-10-18T19:52:17.793Z,12.98
2022-10-18T19:54:49.576Z,12.91
2022-10-18T19:57:19.592Z,12.79
2022-10-18T19:59:49.653Z,12.79
2022-10-18T20:02:19.327Z,12.88
2022-10-18T20:04:49.082Z,12.65
2022-10-18T20:07:18.808Z,12.86
2022-10-18T20:09:48.606Z,12.66
2022-10-18T20:12:18.244Z,12.53
2022-10-18T20:14:47.987Z,12.53
2022-10-18T20:17:17.749Z,12.63
2022-10-18T20:19:48.553Z,12.62
2022-10-18T20:22:18.309Z,12.63
2022-10-18T20:24:48.052Z,12.50
2022-10-18T20:27:17.885Z,12.50
2022-10-18T20:29:48.392Z,12.56
2022-10-18T20:32:18.188Z,12.19
2022-10-18T20:34:47.933Z,12.19
2022-10-18T20:37:17.662Z,12.37
2022-10-18T20:39:47.467Z,12.27
2022-10-18T20:42:17.449Z,12.22
2022-10-18T20:44:48.154Z,12.26
2022-10-18T20:47:17.923Z,12.19
2022-10-18T20:49:47.648Z,12.18
2022-10-18T20:52:17.350Z,12.16
2022-10-18T20:54:47.084Z,12.24
2022-10-18T20:57:16.827Z,12.16
2022-10-18T20:59:46.582Z,12.06
2022-10-18T21:02:16.053Z,11.95
2022-10-18T21:04:45.809Z,12.01
2022-10-18T21:07:15.562Z,11.97
2022-10-18T21:09:45.305Z,11.91
2022-10-18T21:12:15.250Z,11.84
2022-10-18T21:14:44.957Z,11.75
2022-10-18T21:17:14.688Z,11.72
2022-10-18T21:19:44.742Z,11.64
2022-10-18T21:22:14.467Z,11.70
2022-10-18T21:24:45.089Z,11.74
2022-10-18T21:27:14.833Z,11.57
2022-10-18T21:29:44.594Z,11.57
2022-10-18T21:32:14.538Z,11.56
2022-10-18T21:34:44.668Z,11.62
2022-10-18T21:37:14.421Z,11.55
2022-10-18T21:39:44.164Z,11.51
2022-10-18T21:42:13.908Z,11.49
2022-10-18T21:44:43.642Z,11.46
2022-10-18T21:47:13.125Z,11.53
2022-10-18T21:49:42.883Z,11.41
2022-10-18T21:52:12.603Z,11.40
2022-10-18T21:54:42.641Z,11.48
2022-10-18T21:57:12.123Z,11.43
2022-10-18T21:59:41.890Z,11.36
2022-10-18T22:02:13.223Z,11.24
2022-10-18T22:04:42.955Z,11.16
2022-10-18T22:07:12.698Z,11.22
2022-10-18T22:09:42.256Z,11.18
2022-10-18T22:12:12.159Z,11.18
2022-10-18T22:14:41.891Z,11.11
2022-10-18T22:17:11.633Z,11.07
2022-10-18T22:19:41.097Z,11.27
2022-10-18T22:22:11.631Z,11.31
2022-10-18T22:24:41.111Z,11.09
2022-10-18T22:27:10.839Z,11.11
2022-10-18T22:29:40.633Z,11.10
2022-10-18T22:32:11.181Z,11.05
2022-10-18T22:34:41.123Z,11.07
2022-10-18T22:37:10.866Z,11.06
2022-10-18T22:39:40.582Z,11.16
2022-10-18T22:42:11.455Z,11.04
2022-10-18T22:44:41.189Z,10.88
2022-10-18T22:47:10.959Z,10.95
2022-10-18T22:49:40.708Z,10.87
2022-10-18T22:52:11.379Z,10.86
2022-10-18T22:54:41.476Z,10.66
2022-10-18T22:57:11.290Z,10.66
2022-10-18T22:59:41.026Z,10.89
2022-10-18T23:02:11.562Z,10.83
2022-10-18T23:04:41.299Z,10.81
2022-10-18T23:07:11.045Z,10.83
2022-10-18T23:12:10.825Z,10.85
2022-10-18T23:14:40.575Z,10.70
2022-10-18T23:17:10.739Z,10.60
2022-10-18T23:19:40.177Z,10.63
2022-10-18T23:22:10.130Z,10.47
2022-10-18T23:24:39.889Z,10.47
2022-10-18T23:27:09.622Z,10.55
2022-10-18T23:29:39.646Z,10.49
2022-10-18T23:32:11.297Z,10.55
2022-10-18T23:34:41.049Z,10.53
2022-10-18T23:37:10.804Z,10.43
2022-10-18T23:39:40.829Z,10.27
2022-10-18T23:42:11.463Z,10.60
2022-10-18T23:44:41.208Z,10.43
2022-10-18T23:47:10.943Z,10.34
2022-10-18T23:49:40.697Z,10.36
2022-10-18T23:52:11.770Z,10.36
2022-10-18T23:54:41.535Z,10.32
2022-10-18T23:57:11.686Z,10.29
2022-10-18T23:59:41.740Z,10.20
